createdAt,value
2018-12-20T00:00:44.347Z,4.93
2018-12-20T00:03:12.889Z,4.00
2018-12-20T00:05:41.613Z,4.47
2018-12-20T00:08:10.145Z,5.83
2018-12-20T00:10:38.721Z,4.43
2018-12-20T00:13:07.420Z,5.13
2018-12-20T00:15:35.912Z,6.03
2018-12-20T00:18:04.479Z,5.97
2018-12-20T00:20:33.218Z,6.07
2018-12-20T00:23:01.884Z,6.60
2018-12-20T00:25:30.413Z,6.00
2018-12-20T00:27:59.071Z,8.23
2018-12-20T00:30:27.601Z,7.97
2018-12-20T00:32:56.244Z,4.80
2018-12-20T00:35:24.828Z,4.97
2018-12-20T00:37:53.458Z,4.90
2018-12-20T00:40:22.086Z,5.07
2018-12-20T00:42:50.692Z,9.63
2018-12-20T00:45:19.323Z,6.63
2018-12-20T00:47:48.044Z,6.13
2018-12-20T00:50:16.807Z,6.33
2018-12-20T00:52:45.781Z,8.60
2018-12-20T00:55:14.994Z,7.20
2018-12-20T00:57:43.599Z,5.83
2018-12-20T01:00:12.396Z,7.80
2018-12-20T01:02:41.266Z,7.60
2018-12-20T01:05:09.931Z,8.93
2018-12-20T01:07:38.435Z,7.50
2018-12-20T01:10:07.193Z,7.73
2018-12-20T01:12:35.880Z,8.70
2018-12-20T01:15:05.365Z,6.87
2018-12-20T01:17:39.405Z,6.87
2018-12-20T01:20:09.801Z,6.47
2018-12-20T01:22:38.445Z,5.30
2018-12-20T01:25:07.452Z,6.87
2018-12-20T01:27:36.031Z,5.23
2018-12-20T01:30:06.287Z,6.30
2018-12-20T01:32:34.854Z,5.97
2018-12-20T01:35:04.266Z,5.97
2018-12-20T01:37:33.046Z,5.97
2018-12-20T01:40:01.647Z,5.83
2018-12-20T01:42:30.279Z,7.23
2018-12-20T01:44:59.037Z,5.77
2018-12-20T01:47:27.644Z,6.37
2018-12-20T01:49:56.448Z,7.90
2018-12-20T01:52:24.972Z,5.33
2018-12-20T01:54:53.874Z,5.47
2018-12-20T01:57:22.745Z,6.37
2018-12-20T01:59:51.315Z,5.73
2018-12-20T02:02:19.930Z,6.20
2018-12-20T02:04:48.590Z,7.07
2018-12-20T02:07:17.192Z,6.60
2018-12-20T02:09:45.723Z,6.53
2018-12-20T02:12:14.241Z,7.50
2018-12-20T02:14:43.334Z,6.67
2018-12-20T02:17:12.016Z,6.93
2018-12-20T02:19:41.381Z,6.70
2018-12-20T02:22:09.892Z,8.23
2018-12-20T02:24:38.511Z,7.30
2018-12-20T02:27:07.934Z,6.87
2018-12-20T02:29:36.496Z,6.23
2018-12-20T02:32:05.184Z,8.17
2018-12-20T02:34:33.817Z,7.17
2018-12-20T02:37:02.738Z,7.63
2018-12-20T02:39:31.431Z,8.83
2018-12-20T02:42:00.162Z,8.03
2018-12-20T02:44:28.949Z,9.83
2018-12-20T02:46:57.607Z,8.80
2018-12-20T02:49:26.272Z,7.57
2018-12-20T02:51:55.090Z,8.80
2018-12-20T02:54:24.040Z,9.00
2018-12-20T02:56:52.638Z,9.13
2018-12-20T02:59:21.367Z,9.00
2018-12-20T03:01:49.981Z,10.00
2018-12-20T03:04:18.523Z,9.60
2018-12-20T03:06:47.106Z,9.23
2018-12-20T03:09:15.669Z,8.70
2018-12-20T03:11:44.343Z,9.63
2018-12-20T03:14:13.066Z,7.97
2018-12-20T03:16:41.717Z,10.70
2018-12-20T03:19:10.438Z,10.10
2018-12-20T03:21:39.247Z,10.67
2018-12-20T03:24:07.884Z,7.83
2018-12-20T03:26:36.551Z,8.93
2018-12-20T03:29:05.210Z,9.27
2018-12-20T03:31:33.868Z,8.17
2018-12-20T03:34:02.458Z,9.77
2018-12-20T03:36:31.246Z,11.10
2018-12-20T03:38:59.755Z,8.23
2018-12-20T03:41:28.400Z,7.57
2018-12-20T03:43:57.078Z,10.80
2018-12-20T03:46:25.783Z,11.63
2018-12-20T03:48:54.469Z,9.33
2018-12-20T03:51:23.173Z,9.77
2018-12-20T03:53:51.754Z,10.07
2018-12-20T03:56:20.615Z,8.97
2018-12-20T03:58:49.364Z,9.57
2018-12-20T04:01:17.976Z,7.70
2018-12-20T04:03:46.742Z,7.67
2018-12-20T04:06:15.519Z,9.93
2018-12-20T04:08:44.111Z,10.20
2018-12-20T04:11:12.629Z,7.60
2018-12-20T04:13:41.477Z,10.10
2018-12-20T04:16:10.183Z,10.73
2018-12-20T04:18:39.055Z,10.23
2018-12-20T04:21:07.850Z,9.13
2018-12-20T04:23:36.809Z,10.70
2018-12-20T04:26:05.366Z,9.43
2018-12-20T04:28:33.898Z,8.77
2018-12-20T04:31:02.539Z,10.00
2018-12-20T04:33:31.067Z,9.60
2018-12-20T04:35:59.629Z,8.27
2018-12-20T04:38:28.256Z,10.47
2018-12-20T04:40:57.804Z,8.53
2018-12-20T04:43:26.334Z,9.53
2018-12-20T04:45:54.899Z,8.03
2018-12-20T04:48:23.669Z,10.67
2018-12-20T04:50:52.360Z,7.30
2018-12-20T04:53:21.056Z,8.80
2018-12-20T04:55:49.700Z,6.97
2018-12-20T04:58:18.355Z,8.33
2018-12-20T05:00:46.903Z,6.40
2018-12-20T05:03:15.678Z,7.30
2018-12-20T05:05:47.237Z,6.40
2018-12-20T05:08:16.863Z,6.97
2018-12-20T05:10:45.835Z,9.33
2018-12-20T05:13:15.174Z,9.63
2018-12-20T05:15:55.815Z,8.53
2018-12-20T05:18:18.022Z,7.57
2018-12-20T05:20:46.674Z,11.10
2018-12-20T05:23:15.444Z,10.60
2018-12-20T05:25:46.556Z,8.50
2018-12-20T05:28:15.398Z,6.73
2018-12-20T05:30:44.433Z,9.00
2018-12-20T05:33:18.259Z,8.77
2018-12-20T05:35:47.171Z,8.80
2018-12-20T05:38:15.978Z,7.47
2018-12-20T05:40:44.950Z,7.63
2018-12-20T05:43:13.970Z,7.53
2018-12-20T05:45:42.651Z,6.73
2018-12-20T05:48:11.925Z,7.90
2018-12-20T05:50:40.476Z,7.83
2018-12-20T05:53:08.976Z,7.40
2018-12-20T05:55:37.434Z,8.83
2018-12-20T05:58:06.143Z,8.37
2018-12-20T06:00:34.775Z,8.67
2018-12-20T06:03:03.423Z,12.90
2018-12-20T06:05:32.302Z,8.30
2018-12-20T06:08:01.139Z,7.93
2018-12-20T06:10:30.090Z,7.87
2018-12-20T06:12:58.805Z,8.43
2018-12-20T06:15:27.631Z,12.37
2018-12-20T06:17:56.264Z,9.77
2018-12-20T06:20:24.876Z,8.53
2018-12-20T06:22:53.367Z,9.07
2018-12-20T06:25:21.886Z,8.67
2018-12-20T06:27:50.402Z,7.70
2018-12-20T06:30:18.882Z,6.63
2018-12-20T06:32:47.733Z,8.47
2018-12-20T06:35:16.219Z,8.33
2018-12-20T06:37:44.991Z,6.70
2018-12-20T06:40:13.560Z,6.87
2018-12-20T06:42:42.036Z,7.20
2018-12-20T06:45:10.539Z,8.40
2018-12-20T06:47:39.105Z,8.93
2018-12-20T06:50:07.841Z,9.23
2018-12-20T06:52:36.389Z,8.27
2018-12-20T06:55:05.368Z,8.83
2018-12-20T06:57:33.949Z,7.90
2018-12-20T07:00:03.023Z,7.60
2018-12-20T07:02:31.636Z,9.20
2018-12-20T07:05:00.124Z,8.60
2018-12-20T07:07:28.579Z,8.30
2018-12-20T07:09:57.096Z,9.97
2018-12-20T07:12:25.595Z,9.03
2018-12-20T07:14:54.187Z,9.13
2018-12-20T07:17:22.695Z,9.63
2018-12-20T07:19:51.186Z,9.63
2018-12-20T07:22:21.592Z,9.97
2018-12-20T07:24:50.498Z,9.97
2018-12-20T07:27:19.647Z,9.50
2018-12-20T07:29:48.214Z,12.33
2018-12-20T07:32:24.923Z,10.77
2018-12-20T07:34:47.949Z,12.30
2018-12-20T07:37:16.925Z,9.00
2018-12-20T07:39:45.521Z,10.43
2018-12-20T07:42:14.118Z,11.63
2018-12-20T07:44:42.702Z,11.20
2018-12-20T07:47:11.244Z,11.73
2018-12-20T07:49:39.798Z,11.73
2018-12-20T07:52:08.423Z,11.77
2018-12-20T07:54:37.141Z,9.40
2018-12-20T07:57:05.776Z,10.27
2018-12-20T07:59:35.651Z,11.57
2018-12-20T08:02:10.976Z,11.10
2018-12-20T08:04:39.765Z,12.13
2018-12-20T08:07:08.892Z,12.73
2018-12-20T08:09:37.551Z,12.57
2018-12-20T08:12:06.320Z,12.50
2018-12-20T08:14:34.935Z,11.43
2018-12-20T08:17:03.536Z,11.33
2018-12-20T08:19:36.347Z,13.90
2018-12-20T08:22:02.923Z,11.37
2018-12-20T08:24:31.626Z,11.63
2018-12-20T08:27:00.210Z,10.50
2018-12-20T08:29:28.954Z,11.57
2018-12-20T08:31:57.612Z,11.50
2018-12-20T08:34:26.379Z,10.63
2018-12-20T08:36:55.029Z,12.20
2018-12-20T08:39:23.676Z,10.93
2018-12-20T08:41:52.952Z,11.00
2018-12-20T08:44:22.036Z,10.50
2018-12-20T08:46:54.335Z,10.70
2018-12-20T08:49:21.814Z,9.33
2018-12-20T08:51:50.988Z,9.80
2018-12-20T08:54:19.737Z,10.73
2018-12-20T08:56:49.969Z,9.70
2018-12-20T08:59:19.600Z,8.90
2018-12-20T09:01:49.711Z,9.10
2018-12-20T09:04:34.946Z,9.23
2018-12-20T09:07:03.752Z,8.50
2018-12-20T09:09:33.895Z,9.80
2018-12-20T09:12:03.503Z,8.00
2018-12-20T09:14:32.235Z,7.93
2018-12-20T09:17:03.135Z,7.47
2018-12-20T09:19:35.387Z,8.77
2018-12-20T09:22:05.337Z,8.33
2018-12-20T09:24:34.593Z,8.40
2018-12-20T09:27:03.219Z,7.73
2018-12-20T09:29:32.514Z,7.43
2018-12-20T09:32:02.233Z,7.33
2018-12-20T09:34:31.942Z,7.67
2018-12-20T09:37:02.090Z,6.10
2018-12-20T09:39:31.754Z,6.70
2018-12-20T09:42:00.735Z,6.30
2018-12-20T09:44:29.809Z,6.53
2018-12-20T09:47:11.426Z,6.53
2018-12-20T09:49:34.568Z,6.07
2018-12-20T09:52:07.405Z,6.33
2018-12-20T09:54:37.747Z,6.67
2018-12-20T09:57:07.496Z,6.63
2018-12-20T09:59:36.585Z,5.97
2018-12-20T10:02:05.380Z,5.53
2018-12-20T10:04:34.723Z,5.00
2018-12-20T10:07:05.406Z,5.13
2018-12-20T10:09:34.490Z,5.73
2018-12-20T10:12:05.530Z,5.57
2018-12-20T10:14:34.333Z,5.00
2018-12-20T10:17:04.853Z,4.73
2018-12-20T10:19:34.352Z,5.20
2018-12-20T10:22:04.188Z,5.30
2018-12-20T10:24:34.561Z,4.80
2018-12-20T10:27:04.127Z,5.33
2018-12-20T10:29:33.545Z,4.80
2018-12-20T10:32:04.420Z,4.73
2018-12-20T10:34:35.838Z,5.80
2018-12-20T10:37:06.484Z,4.80
2018-12-20T10:39:35.529Z,4.70
2018-12-20T10:42:04.745Z,4.43
2018-12-20T10:44:35.671Z,4.00
2018-12-20T10:47:10.517Z,4.53
2018-12-20T10:49:40.174Z,4.93
2018-12-20T10:52:08.944Z,4.30
2018-12-20T10:54:38.124Z,4.57
2018-12-20T10:57:08.184Z,3.67
2018-12-20T10:59:37.034Z,4.27
2018-12-20T11:02:11.174Z,3.70
2018-12-20T11:04:45.225Z,3.60
2018-12-20T11:07:19.489Z,3.63
2018-12-20T11:09:54.838Z,3.20
2018-12-20T11:12:30.092Z,3.37
2018-12-20T11:14:59.826Z,2.70
2018-12-20T11:17:37.122Z,3.23
2018-12-20T11:20:00.798Z,2.93
2018-12-20T11:22:32.900Z,3.43
2018-12-20T11:25:02.618Z,4.10
2018-12-20T11:28:24.017Z,3.13
2018-12-20T11:30:54.759Z,3.10
2018-12-20T11:33:27.148Z,3.40
2018-12-20T11:35:59.599Z,3.37
2018-12-20T11:38:29.172Z,4.00
2018-12-20T11:40:59.077Z,3.13
2018-12-20T11:43:28.840Z,3.00
2018-12-20T11:45:59.017Z,3.23
2018-12-20T11:48:27.943Z,4.27
2018-12-20T11:50:57.210Z,3.30
2018-12-20T11:53:27.991Z,3.30
2018-12-20T11:55:58.489Z,3.30
2018-12-20T11:58:28.439Z,3.50
2018-12-20T12:00:57.783Z,3.50
2018-12-20T12:03:27.611Z,3.53
2018-12-20T12:05:57.570Z,3.50
2018-12-20T12:08:27.333Z,3.67
2018-12-20T12:10:56.041Z,3.57
2018-12-20T12:13:24.918Z,3.73
2018-12-20T12:15:53.894Z,3.50
2018-12-20T12:18:23.204Z,3.50
2018-12-20T12:20:55.397Z,3.27
2018-12-20T12:23:24.730Z,3.63
2018-12-20T12:25:54.637Z,3.63
2018-12-20T12:28:23.410Z,3.17
2018-12-20T12:30:52.245Z,4.23
2018-12-20T12:33:22.469Z,3.43
2018-12-20T12:35:52.257Z,3.70
2018-12-20T12:38:20.980Z,3.63
2018-12-20T12:40:49.774Z,3.53
2018-12-20T12:43:18.567Z,3.90
2018-12-20T12:45:47.603Z,3.93
2018-12-20T12:48:18.094Z,3.90
2018-12-20T12:50:48.038Z,3.70
2018-12-20T12:53:17.696Z,3.40
2018-12-20T12:55:46.469Z,3.80
2018-12-20T12:58:15.222Z,3.43
2018-12-20T13:00:46.377Z,3.30
2018-12-20T13:03:15.643Z,3.93
2018-12-20T13:05:44.961Z,3.70
2018-12-20T13:08:16.673Z,4.00
2018-12-20T13:10:47.216Z,3.23
2018-12-20T13:13:18.117Z,3.83
2018-12-20T13:21:01.551Z,2.73
2018-12-20T13:23:33.074Z,2.67
2018-12-20T13:27:30.491Z,3.03
2018-12-20T13:30:03.613Z,3.20
2018-12-20T13:32:38.821Z,3.07
2018-12-20T13:35:08.585Z,3.40
2018-12-20T13:37:39.500Z,3.40
2018-12-20T13:40:10.579Z,3.70
2018-12-20T13:42:41.500Z,4.43
2018-12-20T13:45:11.458Z,3.60
2018-12-20T13:47:53.565Z,4.20
2018-12-20T13:50:25.011Z,3.87
2018-12-20T13:52:56.790Z,3.77
2018-12-20T13:55:29.265Z,3.50
2018-12-20T13:58:01.245Z,4.60
2018-12-20T14:00:31.784Z,3.73
2018-12-20T14:03:01.100Z,3.30
2018-12-20T14:05:30.016Z,4.53
2018-12-20T14:08:01.170Z,3.63
2018-12-20T14:10:30.004Z,3.63
2018-12-20T14:12:59.031Z,3.43
2018-12-20T14:15:30.067Z,3.10
2018-12-20T14:17:59.517Z,3.17
2018-12-20T14:20:30.539Z,3.20
2018-12-20T14:23:01.418Z,3.10
2018-12-20T14:25:30.940Z,3.30
2018-12-20T14:28:02.320Z,3.23
2018-12-20T14:30:31.992Z,3.87
2018-12-20T14:33:01.042Z,3.57
2018-12-20T14:35:31.666Z,3.07
2018-12-20T14:38:04.017Z,2.80
2018-12-20T14:40:33.656Z,3.17
2018-12-20T14:43:02.630Z,3.13
2018-12-20T14:45:31.677Z,3.43
2018-12-20T14:48:00.656Z,2.80
2018-12-20T14:50:29.549Z,3.10
2018-12-20T14:52:58.390Z,3.13
2018-12-20T14:55:28.800Z,2.77
2018-12-20T14:57:58.979Z,3.20
2018-12-20T15:00:29.029Z,3.20
2018-12-20T15:02:58.349Z,4.03
2018-12-20T15:05:27.076Z,6.00
2018-12-20T15:07:57.709Z,4.80
2018-12-20T15:10:26.537Z,4.00
2018-12-20T15:12:56.652Z,2.97
2018-12-20T15:15:25.530Z,2.60
2018-12-20T15:17:55.329Z,3.00
2018-12-20T15:20:24.074Z,3.30
2018-12-20T15:22:52.671Z,3.07
2018-12-20T15:25:21.449Z,2.63
2018-12-20T15:27:50.255Z,3.50
2018-12-20T15:30:20.639Z,3.70
2018-12-20T15:32:49.383Z,3.60
2018-12-20T15:35:18.160Z,3.57
2018-12-20T15:37:47.624Z,3.33
2018-12-20T15:40:16.303Z,3.73
2018-12-20T15:42:44.964Z,3.63
2018-12-20T15:45:13.666Z,4.50
2018-12-20T15:47:42.306Z,4.97
2018-12-20T15:50:12.874Z,4.77
2018-12-20T15:52:45.911Z,4.13
2018-12-20T15:55:15.246Z,4.30
2018-12-20T15:57:44.123Z,4.93
2018-12-20T16:00:14.826Z,5.53
2018-12-20T16:02:43.902Z,4.83
2018-12-20T16:05:13.189Z,5.43
2018-12-20T16:07:42.977Z,6.03
2018-12-20T16:10:12.384Z,6.43
2018-12-20T16:12:41.576Z,7.17
2018-12-20T16:15:11.750Z,5.87
2018-12-20T16:17:41.322Z,6.03
2018-12-20T16:20:10.074Z,6.83
2018-12-20T16:22:39.104Z,6.63
2018-12-20T16:25:08.757Z,6.00
2018-12-20T16:27:40.695Z,6.17
2018-12-20T16:30:12.983Z,7.23
2018-12-20T16:32:48.669Z,7.20
2018-12-20T16:35:20.260Z,7.13
2018-12-20T16:38:05.229Z,9.83
2018-12-20T16:40:34.537Z,8.57
2018-12-20T16:43:06.170Z,7.97
2018-12-20T16:45:37.557Z,9.40
2018-12-20T16:48:09.667Z,9.50
2018-12-20T16:50:38.533Z,8.80
2018-12-20T16:53:09.744Z,9.23
2018-12-20T16:55:41.571Z,8.97
2018-12-20T16:58:12.780Z,9.17
2018-12-20T17:00:46.110Z,9.87
2018-12-20T17:03:15.685Z,10.83
2018-12-20T17:05:45.289Z,10.50
2018-12-20T17:08:16.161Z,11.30
2018-12-20T17:10:47.635Z,11.87
2018-12-20T17:13:16.974Z,11.47
2018-12-20T17:15:47.814Z,12.07
2018-12-20T17:18:17.483Z,12.63
2018-12-20T17:20:49.345Z,11.37
2018-12-20T17:23:35.590Z,12.13
2018-12-20T17:26:02.402Z,11.80
2018-12-20T17:28:33.324Z,12.77
2018-12-20T17:31:04.234Z,11.53
2018-12-20T17:33:34.991Z,12.50
2018-12-20T17:36:03.924Z,13.20
2018-12-20T17:38:35.177Z,12.10
2018-12-20T17:41:04.166Z,12.43
2018-12-20T17:43:35.347Z,13.90
2018-12-20T17:46:06.756Z,13.37
2018-12-20T17:48:37.933Z,13.60
2018-12-20T17:51:10.111Z,13.67
2018-12-20T17:53:39.127Z,14.17
2018-12-20T17:56:10.107Z,13.20
2018-12-20T17:58:38.600Z,13.27
2018-12-20T18:01:07.142Z,15.13
2018-12-20T18:03:35.694Z,15.17
2018-12-20T18:06:04.588Z,15.63
2018-12-20T18:08:33.143Z,15.63
2018-12-20T18:11:01.680Z,15.73
2018-12-20T18:13:30.231Z,16.20
2018-12-20T18:15:58.790Z,16.20
2018-12-20T18:18:27.395Z,18.03
2018-12-20T18:20:56.195Z,15.37
2018-12-20T18:23:24.741Z,17.17
2018-12-20T18:25:53.317Z,17.00
2018-12-20T18:28:23.133Z,18.30
2018-12-20T18:30:54.496Z,18.80
2018-12-20T18:33:24.283Z,16.53
2018-12-20T18:35:53.114Z,16.43
2018-12-20T18:38:21.736Z,15.97
2018-12-20T18:40:50.418Z,15.93
2018-12-20T18:43:19.211Z,15.57
2018-12-20T18:45:48.197Z,16.47
2018-12-20T18:48:16.790Z,15.37
2018-12-20T18:50:45.858Z,15.77
2018-12-20T18:53:14.406Z,17.98
2018-12-20T18:55:43.061Z,14.40
2018-12-20T18:58:11.757Z,16.83
2018-12-20T19:00:40.415Z,15.57
2018-12-20T19:03:09.043Z,17.17
2018-12-20T19:05:37.593Z,13.37
2018-12-20T19:08:06.339Z,14.37
2018-12-20T19:10:34.931Z,13.70
2018-12-20T19:13:03.577Z,14.20
2018-12-20T19:15:32.172Z,14.40
2018-12-20T19:18:00.812Z,14.20
2018-12-20T19:20:29.340Z,12.43
2018-12-20T19:22:57.965Z,13.83
2018-12-20T19:25:26.728Z,15.98
2018-12-20T19:27:55.303Z,15.87
2018-12-20T19:30:23.996Z,15.53
2018-12-20T19:32:52.621Z,14.33
2018-12-20T19:35:21.259Z,15.63
2018-12-20T19:37:49.820Z,15.37
2018-12-20T19:40:18.394Z,11.83
2018-12-20T19:42:47.037Z,15.93
2018-12-20T19:45:15.643Z,14.93
2018-12-20T19:47:44.319Z,15.23
2018-12-20T19:50:12.887Z,15.37
2018-12-20T19:52:41.441Z,15.97
2018-12-20T19:55:09.990Z,15.33
2018-12-20T19:57:38.538Z,16.10
2018-12-20T20:00:11.608Z,15.07
2018-12-20T20:02:40.179Z,16.83
2018-12-20T20:05:08.844Z,16.77
2018-12-20T20:07:37.463Z,16.40
2018-12-20T20:10:08.204Z,14.20
2018-12-20T20:12:36.827Z,14.30
2018-12-20T20:15:16.056Z,15.00
2018-12-20T20:17:38.053Z,14.43
2018-12-20T20:20:13.808Z,13.97
2018-12-20T20:22:37.557Z,14.90
2018-12-20T20:25:07.244Z,14.40
2018-12-20T20:27:35.793Z,15.33
2018-12-20T20:30:05.538Z,14.43
2018-12-20T20:32:34.226Z,15.27
2018-12-20T20:35:03.034Z,14.27
2018-12-20T20:37:31.611Z,14.80
2018-12-20T20:40:00.459Z,15.23
2018-12-20T20:42:29.056Z,13.47
2018-12-20T20:44:57.610Z,13.43
2018-12-20T20:47:26.182Z,14.17
2018-12-20T20:49:54.819Z,13.73
2018-12-20T20:52:23.441Z,13.40
2018-12-20T20:54:53.468Z,12.30
2018-12-20T20:57:22.196Z,13.30
2018-12-20T20:59:54.027Z,12.83
2018-12-20T21:02:22.619Z,13.27
2018-12-20T21:04:51.304Z,13.10
2018-12-20T21:07:20.046Z,12.73
2018-12-20T21:09:48.695Z,12.37
2018-12-20T21:12:22.725Z,12.23
2018-12-20T21:14:52.295Z,11.17
2018-12-20T21:17:19.239Z,13.13
2018-12-20T21:19:50.221Z,12.23
2018-12-20T21:22:33.680Z,11.70
2018-12-20T21:25:02.338Z,11.03
2018-12-20T21:27:57.936Z,11.37
2018-12-20T21:30:43.569Z,10.77
2018-12-20T21:33:26.516Z,10.07
2018-12-20T21:36:35.964Z,10.30
2018-12-20T21:41:52.168Z,10.67
2018-12-20T21:44:38.514Z,10.80
2018-12-20T21:50:51.722Z,11.97
2018-12-20T21:53:22.251Z,11.00
2018-12-20T21:55:55.037Z,9.37
2018-12-20T21:58:39.239Z,10.23
2018-12-20T22:01:09.398Z,10.30
2018-12-20T22:03:41.954Z,9.80
2018-12-20T22:06:12.257Z,9.90
2018-12-20T22:08:44.094Z,10.30
2018-12-20T22:11:18.910Z,9.47
2018-12-20T22:13:48.754Z,8.47
2018-12-20T22:16:18.446Z,9.13
2018-12-20T22:18:48.494Z,9.27
2018-12-20T22:21:18.955Z,10.07
2018-12-20T22:23:50.022Z,9.23
2018-12-20T22:26:22.114Z,8.83
2018-12-20T22:28:51.869Z,8.90
2018-12-20T22:31:20.442Z,12.00
2018-12-20T22:33:49.511Z,11.80
2018-12-20T22:36:18.161Z,9.30
2018-12-20T22:38:53.094Z,8.43
2018-12-20T22:41:21.813Z,8.07
2018-12-20T22:43:51.091Z,8.23
2018-12-20T22:46:21.519Z,9.00
2018-12-20T22:48:50.732Z,8.37
2018-12-20T22:51:21.629Z,7.37
2018-12-20T22:53:53.113Z,7.10
2018-12-20T22:56:22.384Z,6.83
2018-12-20T22:58:50.982Z,7.27
2018-12-20T23:01:20.037Z,7.70
2018-12-20T23:03:48.673Z,8.33
2018-12-20T23:06:17.378Z,6.70
2018-12-20T23:08:45.907Z,7.40
2018-12-20T23:11:14.490Z,7.47
2018-12-20T23:13:43.164Z,6.67
2018-12-20T23:16:11.774Z,7.03
2018-12-20T23:34:01.139Z,5.53
2018-12-20T23:36:46.173Z,4.80
2018-12-20T23:39:19.462Z,4.57
2018-12-20T23:45:52.088Z,4.20
2018-12-20T23:48:27.066Z,3.53
2018-12-20T23:50:59.953Z,4.00
2018-12-20T23:53:41.422Z,3.30
2018-12-20T23:56:13.989Z,4.80
2018-12-20T23:58:55.206Z,3.40
